Flight Track Log - Related Links

Times and Time Zones

All times are in EDT time to prevent confusion due to time zone crossing. See the PDT4129 flight status page for this flight to view local times or setup timezone preferences in your user account.

Time Position Orientation Groundspeed Altitude Reporting Facility
EDT Latitude Longitude Course Direction KTS MPH feet Rate Location/Type
Thu 07:18:00 AM 35.7157 -77.8460 287° West  Level FlightAware Approximate
Thu 07:18:40 AM 35.5878 -77.3825 287° West 262 302 2,000  Level Washington Center
Thu 07:19:42 AM 35.6236 -77.3553 32° Northeast 124 143 3,000 1,250 Climbing Washington Center
Thu 07:20:40 AM 35.6778 -77.3667 350° North 104 120 4,500 1,450 Climbing Washington Center
Thu 07:21:42 AM 35.7167 -77.4033 323° Northwest 129 148 5,900 1,250 Climbing Washington Center
Thu 07:22:40 AM 35.7219 -77.4672 276° West 154 177 7,000 1,109 Climbing Washington Center
Thu 07:23:41 AM 35.7292 -77.5342 278° West 173 199 8,100 1,033 Climbing Washington Center
Thu 07:24:42 AM 35.7367 -77.5983 278° West 188 216 9,100 958 Climbing Washington Center
Thu 07:25:40 AM 35.7458 -77.6675 279° West 198 228 10,000 458 Climbing Washington Center
Thu 07:26:40 AM 35.7547 -77.7472 278° West 215 247 10,000  Level Washington Center
Thu 07:27:42 AM 35.7658 -77.8319 279° West 239 275 10,000  Level Washington Center
Thu 07:28:38 AM 35.7725 -77.9242 275° West 262 302 10,000  Level Washington Center
Thu 07:29:05 AM 35.7758 -77.9653 276° West 261 300 10,000  Level Washington Center
Thu 07:29:41 AM 35.7853 -78.0092 285° West 259 298 10,000  Level Washington Center
Thu 07:30:11 AM 35.7883 -78.0631 274° West 262 302 10,000  Level Washington Center
Thu 07:30:42 AM 35.7961 -78.0992 285° West 259 298 10,000  Level Washington Center
Thu 07:31:10 AM 35.7969 -78.1503 271° West 262 302 10,000  Level Washington Center
Thu 07:31:40 AM 35.8067 -78.1864 288° West 259 298 10,000  Level Washington Center
Thu 07:31:58 AM 35.8058 -78.2247 268° West 262 302 10,000  Level Washington Center
Thu 07:32:41 AM 35.8131 -78.2739 280° West 259 298 10,000  Level Washington Center
Thu 07:33:05 AM 35.8078 -78.3222 262° West 262 302 10,000  Level Washington Center
Thu 07:33:41 AM 35.8128 -78.3736 277° West 259 298 10,000  Level Washington Center
Thu 07:34:00 AM 35.8081 -78.4042 259° West 264 304 10,000  Level Washington Center
Thu 07:34:42 AM 35.8108 -78.4633 273° West 259 298 10,000  Level Washington Center
Thu 07:34:54 AM 35.8081 -78.4889 262° West 263 303 10,000  Level Washington Center
Thu 07:35:42 AM 35.8147 -78.5556 277° West 269 310 10,000  Level Washington Center
Thu 07:35:54 AM 35.8100 -78.5786 256° West 263 303 10,000  Level Washington Center
Thu 07:36:40 AM 35.8125 -78.6453 273° West 269 310 10,000  Level Washington Center
Thu 07:37:04 AM 35.8097 -78.6733 263° West 263 303 10,000  Level Washington Center
Thu 07:37:42 AM 35.8142 -78.7375 275° West 269 310 10,000  Level Washington Center
Thu 07:38:04 AM 35.8092 -78.7706 259° West 265 305 10,000  Level Washington Center
Thu 07:38:58 AM 35.8072 -78.8497 268° West 266 306 10,000  Level Washington Center
Thu 07:39:59 AM 35.8108 -78.9397 273° West 261 300 10,000  Level Washington Center
Thu 07:41:04 AM 35.8122 -79.0422 271° West 260 299 10,000  Level Washington Center
Thu 07:42:10 AM 35.8117 -79.1344 270° West 253 291 10,000 -244 Level Washington Center
Thu 07:53:21 AM 35.8136 -80.1003 270° West 272 313 7,000 -315 Descending Atlanta Center
Thu 07:54:00 AM 35.8007 -80.0361 270° West  Level FlightAware Approximate
Thu 07:54:53 AM 35.8094 -80.2311 268° West 244 281 6,000  Level Atlanta Center
Thu 07:55:00 AM 35.8007 -80.1122 270° West  Level FlightAware Approximate
Thu 07:55:54 AM 35.7864 -80.3014 248° West 226 260 6,000  Level Atlanta Center
Thu 07:56:00 AM 35.8006 -80.1884 270° West  Level FlightAware Approximate
Thu 07:56:43 AM 35.7483 -80.3517 227° Southwest 237 273 6,000  Level Atlanta Center
Thu 07:57:00 AM 35.8004 -80.2645 270° West  Level FlightAware Approximate
Thu 07:57:44 AM 35.7086 -80.4175 233° Southwest 244 281 6,000  Level Atlanta Center
Thu 07:58:00 AM 35.8002 -80.3407 270° West  Level FlightAware Approximate
Thu 07:58:51 AM 35.6456 -80.4739 216° Southwest 247 284 6,000  Level Atlanta Center
Thu 07:59:46 AM 35.5836 -80.4919 193° South 248 285 6,000  Level Atlanta Center
Thu 08:00:47 AM 35.5303 -80.5272 208° Southwest 235 270 6,000  Level Atlanta Center
Thu 08:01:54 AM 35.4756 -80.5781 217° Southwest 216 249 6,000  Level Atlanta Center
Thu 08:02:55 AM 35.4333 -80.6386 229° Southwest 217 250 6,000 -197 Level Atlanta Center
Thu 08:03:56 AM 35.3953 -80.6961 231° Southwest 220 253 5,600 -780 Descending Atlanta Center
Thu 08:04:58 AM 35.3550 -80.7539 229° Southwest 219 252 4,400 -976 Descending Atlanta Center
Thu 08:05:59 AM 35.3167 -80.8011 225° Southwest 202 232 3,600 -984 Descending Atlanta Center
Thu 08:07:00 AM 35.2825 -80.8508 230° Southwest 176 203 2,400 -983 Descending Atlanta Center
Thu 08:07:55 AM 35.2542 -80.8875 227° Southwest 150 173 1,700 -656 Descending Atlanta Center
Thu 08:09:08 AM 35.2303 -80.9242 231° Southwest 115 132 1,000 -575 Descending Atlanta Center
Thu 08:11:00 AM 35.2000 -80.9333 39° Northeast  Level FlightAware Approximate

Login

Don't have an account? Register now (free) for customized features, flight alerts, and more!